< < Back
Terminal Aerodrome Forecast


Current Version              Previous Versions:   1  2  3  4  5  6  7  8  9  

Terminal Aerodrome Forecast

209
FTUS42 KJAX 261019 AAC
TAFGNV
TAF AMD
KGNV 261019Z 2610/2706 25009KT 5SM BR VCSH SCT015 BKN025
     FM261400 26012G21KT P6SM VCTS SCT040CB BKN250
      TEMPO 2615/2619 VRB15G30KT 3SM +TSRA BR SCT025 BKN035CB BKN090
     FM262200 23008KT P6SM VCSH SCT030 BKN150 BKN250=



Latest METAR

476
SAUS70 KWBC 261300 RRF
MTRGNV
METAR KGNV 261253Z 26009KT 6SM BR SCT011 BKN018 OVC100 26/23 A2978 RMK
AO2 SLP081 T02560233 $


USA.gov is the U.S. government's official web portal to all federal, state and local government web resources and services.